Flight Track Log - Related Links

Times and Time Zones

All times are in EDT time to prevent confusion due to time zone crossing. See the EJA929 flight status page for this flight to view local times or setup timezone preferences in your user account.

Time Position Orientation Groundspeed Altitude Reporting Facility
EDT Latitude Longitude Course Direction KTS MPH feet Rate Location/Type
Sun 05:31:21 PM 36.6333 -121.9000 11° North 228 262 2,900  Level Northern Cal TRACON
Sun 05:32:21 PM 36.7000 -121.8833 11° North 270 311 6,000 2,700 Climbing Northern Cal TRACON
Sun 05:33:21 PM 36.7167 -121.8000 76° East 254 292 8,300 2,384 Climbing Northern Cal TRACON
Sun 05:34:52 PM 36.7111 -121.6517 93° East 284 327 12,000 2,275 Climbing Oakland Center
Sun 05:35:54 PM 36.7114 -121.5464 90° East 297 342 14,100 1,597 Climbing Oakland Center
Sun 05:36:56 PM 36.7117 -121.4308 90° East 322 371 15,300 1,065 Climbing Oakland Center
Sun 05:37:58 PM 36.7119 -121.3014 90° East 358 412 16,300 1,113 Climbing Oakland Center
Sun 05:39:00 PM 36.7142 -121.1644 89° East 385 443 17,600 1,355 Climbing Oakland Center
Sun 05:40:02 PM 36.7142 -121.0264 90° East 396 456 19,100 1,597 Climbing Oakland Center
Sun 05:41:04 PM 36.7144 -120.8586 90° East 401 461 20,900 1,645 Climbing Oakland Center
Sun 05:42:06 PM 36.7258 -120.7133 84° East 417 480 22,500 1,500 Climbing Oakland Center
Sun 05:43:08 PM 36.7522 -120.5700 77° East 422 486 24,000 1,500 Climbing Oakland Center
Sun 05:44:10 PM 36.7786 -120.4250 77° East 427 491 25,600 1,742 Climbing Oakland Center
Sun 05:45:12 PM 36.8050 -120.2747 78° East 435 501 27,600 1,597 Climbing Oakland Center
Sun 05:46:14 PM 36.8306 -120.1228 78° East 441 507 28,900 1,548 Climbing Oakland Center
Sun 05:47:16 PM 36.8633 -119.9369 78° East 452 520 30,800 1,839 Climbing Oakland Center
Sun 05:48:18 PM 36.8772 -119.7764 84° East 461 531 32,700 1,887 Climbing Oakland Center
Sun 05:49:20 PM 36.8533 -119.6178 101° East 466 536 34,700 1,839 Climbing Oakland Center
Sun 05:50:22 PM 36.8283 -119.4603 101° East 463 533 36,500 1,839 Climbing Oakland Center
Sun 05:51:24 PM 36.8036 -119.3069 101° East 452 520 38,500 1,645 Climbing Oakland Center
Sun 05:52:26 PM 36.7797 -119.1581 101° East 442 509 39,900 1,161 Climbing Oakland Center
Sun 05:53:28 PM 36.7550 -119.0075 102° East 442 509 40,900 532 Climbing Oakland Center
Sun 05:54:30 PM 36.7242 -118.8225 102° East 453 521 41,000 49 Climbing Oakland Center
Sun 05:55:31 PM 36.6989 -118.6608 101° East 467 537 41,000  Level Oakland Center
Sun 05:56:33 PM 36.6708 -118.4928 102° East 482 555 41,000  Level Oakland Center
Sun 05:57:35 PM 36.6422 -118.3242 102° East 492 566 41,000  Level Oakland Center
Sun 05:58:37 PM 36.6122 -118.1550 102° East 498 573 41,000  Level Oakland Center
Sun 05:59:39 PM 36.5822 -117.9836 102° East 504 580 41,000  Level Oakland Center
Sun 06:00:41 PM 36.5533 -117.8178 102° East 499 574 41,000  Level Oakland Center
Sun 06:01:42 PM 36.5183 -117.6158 102° East 498 573 41,000  Level Oakland Center
Sun 06:02:44 PM 36.4883 -117.4478 102° East 498 573 41,000  Level Oakland Center
Sun 06:03:46 PM 36.4578 -117.2794 103° East 499 574 41,000  Level Oakland Center
Sun 06:04:48 PM 36.4278 -117.1103 102° East 501 577 41,000  Level Oakland Center
Sun 06:05:50 PM 36.3964 -116.9453 103° East 499 574 41,000  Level Oakland Center
Sun 06:07:06 PM 36.3569 -116.7233 102° East 503 579 41,000  Level Los Angeles Center
Sun 06:08:09 PM 36.3250 -116.5556 103° East 501 577 41,000  Level Los Angeles Center
Sun 06:09:11 PM 36.2942 -116.3861 103° East 504 580 41,000  Level Los Angeles Center
Sun 06:10:13 PM 36.2594 -116.2025 103° East 503 579 41,000  Level Los Angeles Center
Sun 06:11:15 PM 36.2269 -116.0336 103° East 505 581 41,000  Level Los Angeles Center
Sun 06:12:17 PM 36.1922 -115.8611 104° East 507 583 41,000  Level Los Angeles Center
Sun 06:13:19 PM 36.1528 -115.6606 104° East 510 587 41,000  Level Los Angeles Center
Sun 06:14:21 PM 36.1206 -115.4964 104° East 504 580 41,000  Level Los Angeles Center
Sun 06:15:23 PM 36.0886 -115.3306 103° East 501 577 41,000  Level Los Angeles Center
Sun 06:16:25 PM 36.0547 -115.1636 104° East 507 583 41,000  Level Los Angeles Center
Sun 06:17:27 PM 36.0211 -114.9956 104° East 506 582 41,000  Level Los Angeles Center
Sun 06:18:30 PM 35.9969 -114.7917 98° East 503 579 41,000  Level Los Angeles Center
Sun 06:19:32 PM 36.0053 -114.6206 87° East 501 577 41,000  Level Los Angeles Center
Sun 06:20:34 PM 36.0142 -114.4497 86° East 501 577 41,000  Level Los Angeles Center
Sun 06:21:36 PM 36.0211 -114.2783 87° East 500 575 41,000  Level Los Angeles Center
Sun 06:22:38 PM 36.0289 -114.1058 87° East 503 579 41,000  Level Los Angeles Center
Sun 06:23:40 PM 36.0383 -113.8989 87° East 504 580 41,000  Level Los Angeles Center
Sun 06:24:42 PM 36.0458 -113.7261 87° East 505 581 41,000  Level Los Angeles Center
Sun 06:25:44 PM 36.0519 -113.5533 87° East 504 580 41,000  Level Los Angeles Center
Sun 06:26:46 PM 36.0597 -113.3806 87° East 503 579 41,000  Level Los Angeles Center
Sun 06:27:49 PM 36.0664 -113.1994 87° East 507 583 41,000  Level Los Angeles Center
Sun 06:28:51 PM 36.0719 -113.0250 88° East 510 587 41,000  Level Los Angeles Center
Sun 06:29:53 PM 36.0783 -112.8511 87° East 509 586 41,000  Level Los Angeles Center
Sun 06:30:55 PM 36.0850 -112.6394 88° East 514 592 41,000  Level Los Angeles Center
Sun 06:31:57 PM 36.0908 -112.4658 88° East 510 587 41,000  Level Los Angeles Center
Sun 06:32:59 PM 36.0956 -112.2908 88° East 511 588 41,000  Level Los Angeles Center
Sun 06:34:01 PM 36.1006 -112.0986 88° East 513 590 41,000  Level Los Angeles Center
Sun 06:35:03 PM 36.1050 -111.9233 88° East 512 589 41,000  Level Los Angeles Center
Sun 06:36:05 PM 36.1108 -111.7283 88° East 516 594 41,000  Level Los Angeles Center
Sun 06:37:07 PM 36.1156 -111.5511 88° East 517 595 41,000  Level Los Angeles Center
Sun 06:38:09 PM 36.1189 -111.3742 89° East 518 596 41,000  Level Los Angeles Center
Sun 06:39:12 PM 36.1178 -111.1961 90° East 518 596 41,000  Level Los Angeles Center
Sun 06:40:14 PM 36.1081 -111.0175 94° East 522 601 41,000  Level Los Angeles Center
Sun 06:41:43 PM 36.0939 -110.7464 94° East 523 602 41,000  Level Albuquerque Center
Sun 06:42:45 PM 36.0844 -110.5458 93° East 524 603 41,000  Level Albuquerque Center
Sun 06:43:47 PM 36.0731 -110.3731 95° East 525 604 41,000  Level Albuquerque Center
Sun 06:44:49 PM 36.0619 -110.1750 94° East 520 598 41,000  Level Albuquerque Center
Sun 06:45:52 PM 36.0519 -110.0031 94° East 524 603 41,000  Level Denver Center
Sun 06:46:53 PM 36.0389 -109.8031 95° East 523 602 41,000  Level Albuquerque Center
Sun 06:47:54 PM 36.0272 -109.6311 95° East 524 603 41,000  Level Albuquerque Center
Sun 06:48:56 PM 36.0161 -109.4572 94° East 528 608 41,000  Level Albuquerque Center
Sun 06:49:58 PM 36.0036 -109.2569 94° East 527 606 41,000  Level Albuquerque Center
Sun 06:51:00 PM 35.9917 -109.0864 95° East 527 606 41,000  Level Albuquerque Center
Sun 06:52:02 PM 35.9797 -108.9033 95° East 533 613 41,000  Level Albuquerque Center
Sun 06:53:04 PM 35.9669 -108.7253 95° East 526 605 41,000  Level Albuquerque Center
Sun 06:54:05 PM 35.9511 -108.5081 95° East 528 608 41,000  Level Albuquerque Center
Sun 06:55:07 PM 35.9369 -108.3178 95° East 529 609 41,000  Level Albuquerque Center
Sun 06:56:09 PM 35.9236 -108.1453 95° East 529 609 41,000  Level Albuquerque Center
Sun 06:57:11 PM 35.9103 -107.9711 95° East 532 612 41,000  Level Albuquerque Center
Sun 06:58:13 PM 35.8939 -107.7683 96° East 531 611 41,000  Level Albuquerque Center
Sun 06:59:15 PM 35.8797 -107.5944 96° East 533 613 41,000  Level Albuquerque Center
Sun 07:00:16 PM 35.8642 -107.3908 95° East 534 615 41,000  Level Albuquerque Center
Sun 07:01:18 PM 35.8494 -107.2158 96° East 536 617 41,000  Level Albuquerque Center
Sun 07:02:20 PM 35.8314 -107.0103 96° East 541 623 41,000  Level Albuquerque Center
Sun 07:03:22 PM 35.8167 -106.8339 96° East 540 621 41,000  Level Albuquerque Center
Sun 07:04:24 PM 35.8106 -106.6283 92° East 540 621 41,000  Level Albuquerque Center
Sun 07:05:25 PM 35.8083 -106.4408 91° East 542 624 41,000  Level Albuquerque Center
Sun 07:06:27 PM 35.8047 -106.2528 91° East 547 629 41,000  Level Albuquerque Center
Sun 07:07:29 PM 35.8072 -106.0836 89° East 538 619 41,000  Level Albuquerque Center
Sun 07:08:31 PM 35.8028 -105.8969 92° East 541 623 41,000  Level Albuquerque Center
Sun 07:09:32 PM 35.7975 -105.7103 92° East 544 626 41,000  Level Albuquerque Center
Sun 07:10:34 PM 35.7933 -105.5069 91° East 543 625 41,000  Level Albuquerque Center
Sun 07:11:36 PM 35.7889 -105.3178 92° East 546 628 41,000  Level Albuquerque Center
Sun 07:12:38 PM 35.7847 -105.1297 92° East 545 627 41,000  Level Albuquerque Center
Sun 07:13:39 PM 35.7783 -104.9119 92° East 542 624 41,000  Level Albuquerque Center
Sun 07:14:41 PM 35.7725 -104.7231 92° East 544 626 41,000  Level Albuquerque Center
Sun 07:15:43 PM 35.7664 -104.5350 92° East 544 626 41,000  Level Albuquerque Center
Sun 07:16:45 PM 35.7619 -104.3475 92° East 542 624 41,000  Level Albuquerque Center
Sun 07:17:47 PM 35.7550 -104.1583 93° East 543 625 41,000  Level Albuquerque Center
Sun 07:18:48 PM 35.7486 -103.9678 92° East 546 628 41,000  Level Albuquerque Center
Sun 07:19:50 PM 35.7422 -103.7778 92° East 548 631 41,000  Level Albuquerque Center
Sun 07:20:52 PM 35.7347 -103.5875 93° East 548 631 41,000  Level Albuquerque Center
Sun 07:21:53 PM 35.7286 -103.3961 92° East 551 634 41,000  Level Albuquerque Center
Sun 07:22:55 PM 35.7194 -103.2050 93° East 553 636 41,000  Level Albuquerque Center
Sun 07:23:57 PM 35.7119 -103.0142 93° East 554 638 41,000  Level Albuquerque Center
Sun 07:24:59 PM 35.7017 -102.8214 94° East 556 640 41,000  Level Albuquerque Center
Sun 07:26:00 PM 35.6936 -102.6300 93° East 559 643 41,000  Level Albuquerque Center
Sun 07:27:02 PM 35.6839 -102.3986 93° East 564 649 41,000  Level Albuquerque Center
Sun 07:28:04 PM 35.6742 -102.2075 94° East 560 644 41,000  Level Albuquerque Center
Sun 07:29:05 PM 35.6653 -102.0150 93° East 561 646 41,000  Level Albuquerque Center
Sun 07:30:07 PM 35.6544 -101.8222 94° East 562 647 41,000  Level Albuquerque Center
Sun 07:31:09 PM 35.6456 -101.6272 93° East 564 649 41,000  Level Albuquerque Center
Sun 07:32:10 PM 35.6342 -101.4319 94° East 566 651 41,000  Level Albuquerque Center
Sun 07:33:12 PM 35.6236 -101.2375 94° East 567 652 41,000  Level Albuquerque Center
Sun 07:34:14 PM 35.6119 -101.0428 94° East 568 654 41,000  Level Albuquerque Center
Sun 07:35:15 PM 35.6000 -100.8483 94° East 569 655 41,000  Level Albuquerque Center
Sun 07:36:17 PM 35.5869 -100.6450 94° East 569 655 41,000  Level Albuquerque Center
Sun 07:37:18 PM 35.5750 -100.4533 94° East 566 651 41,000  Level Albuquerque Center
Sun 07:38:20 PM 35.5631 -100.2606 94° East 566 651 41,000  Level Albuquerque Center
Sun 07:39:22 PM 35.5475 -100.0289 95° East 567 652 41,000  Level Albuquerque Center
Sun 07:40:23 PM 35.5336 -99.8367 95° East 566 651 41,000  Level Albuquerque Center
Sun 07:41:25 PM 35.5200 -99.6439 95° East 568 654 41,000  Level Albuquerque Center
Sun 07:42:11 PM 35.5036 -99.4842 97° East 569 655 41,000  Level Fort Worth Center
Sun 07:43:11 PM 35.4881 -99.2847 95° East 576 663 41,000  Level Fort Worth Center
Sun 07:44:12 PM 35.4722 -99.0908 96° East 581 669 41,000  Level Fort Worth Center
Sun 07:45:11 PM 35.4558 -98.8942 96° East 576 663 41,000  Level Fort Worth Center
Sun 07:46:11 PM 35.4392 -98.7003 96° East 576 663 41,000  Level Fort Worth Center
Sun 07:47:11 PM 35.4222 -98.5039 96° East 576 663 41,000  Level Fort Worth Center
Sun 07:48:11 PM 35.4008 -98.3150 98° East 571 657 41,000  Level Fort Worth Center
Sun 07:49:11 PM 35.3833 -98.1164 96° East 576 663 41,000  Level Fort Worth Center
Sun 07:50:12 PM 35.3656 -97.9203 96° East 576 663 41,000  Level Fort Worth Center
Sun 07:51:11 PM 35.3453 -97.7214 97° East 576 663 41,000  Level Fort Worth Center
Sun 07:52:11 PM 35.3228 -97.5281 98° East 576 663 41,000  Level Fort Worth Center
Sun 07:53:12 PM 35.3081 -97.3194 95° East 592 681 41,000  Level Fort Worth Center
Sun 07:54:11 PM 35.2850 -97.1414 99° East 592 681 41,000  Level Fort Worth Center
Sun 07:55:11 PM 35.2678 -96.9456 96° East 592 681 41,000  Level Fort Worth Center
Sun 07:56:12 PM 35.2461 -96.7500 98° East 592 681 41,000  Level Fort Worth Center
Sun 07:57:11 PM 35.2261 -96.5544 97° East 592 681 41,000  Level Fort Worth Center
Sun 07:58:11 PM 35.2036 -96.3542 98° East 592 681 41,000  Level Fort Worth Center
Sun 07:59:12 PM 35.1831 -96.1586 97° East 587 676 41,000  Level Fort Worth Center
Sun 08:00:11 PM 35.1600 -95.9636 98° East 587 676 41,000  Level Fort Worth Center
Sun 08:01:11 PM 35.1408 -95.7558 96° East 567 652 41,000  Level Fort Worth Center
Sun 08:03:38 PM 35.0844 -95.2789 98° East 585 673 41,000  Level Memphis Center
Sun 08:04:40 PM 35.0608 -95.0817 98° East 589 678 41,000  Level Memphis Center
Sun 08:05:42 PM 35.0375 -94.8839 98° East 590 679 41,000 -97 Level Memphis Center
Sun 08:06:44 PM 35.0142 -94.6856 98° East 592 681 40,800 -919 Descending Memphis Center
Sun 08:07:46 PM 34.9844 -94.4575 99° East 592 681 39,100 -1,887 Descending Memphis Center
Sun 08:08:48 PM 34.9603 -94.2608 98° East 591 680 36,900 -2,371 Descending Memphis Center
Sun 08:09:50 PM 34.9336 -94.0497 99° East 590 679 34,200 -2,468 Descending Memphis Center
Sun 08:10:52 PM 34.9094 -93.8697 99° East 587 676 31,800 -2,419 Descending Memphis Center
Sun 08:11:54 PM 34.8847 -93.6822 99° East 573 659 29,200 -3,629 Descending Memphis Center
Sun 08:12:56 PM 34.8567 -93.4675 99° East 552 635 24,300 -4,585 Descending Memphis Center
Sun 08:13:57 PM 34.8339 -93.2994 99° East 525 604 19,800 -4,098 Descending Memphis Center
Sun 08:14:59 PM 34.8128 -93.1419 99° East 494 568 15,900 -4,000 Descending Memphis Center
Sun 08:15:12 PM 34.8072 -93.1031 100° East 460 529 14,800 -4,179 Descending Memphis Center
Sun 08:15:55 PM 34.7928 -92.9975 99° East 441 507 12,000 -3,306 Descending Memphis Center
Sun 08:16:01 PM 34.7936 -92.9964 48° Northeast 460 529 12,100 -1,900 Climbing Memphis Center
Sun 08:16:55 PM 34.7775 -92.8692 99° East 383 441 10,100 -1,935 Descending Memphis Center
Sun 08:17:03 PM 34.7764 -92.8636 104° East 421 484 10,100 -522 Level Memphis Center
Sun 08:18:04 PM 34.7708 -92.7456 93° East 370 426 9,500 -1,474 Descending Memphis Center
Sun 08:18:57 PM 34.7642 -92.6319 94° East 310 357 7,300 -2,323 Descending Memphis Center
Sun 08:19:06 PM 34.7647 -92.6186 87° East 327 376 7,100 -1,900 Descending Memphis Center
Sun 08:19:57 PM 34.7708 -92.5381 85° East 278 320 5,400 -1,935 Descending Memphis Center
Sun 08:20:08 PM 34.7733 -92.5228 79° East 294 338 5,100 -2,066 Descending Memphis Center
Sun 08:20:58 PM 34.7817 -92.4461 82° East 254 292 3,300 -1,742 Descending Memphis Center
Sun 08:21:10 PM 34.7856 -92.4369 63° Northeast 271 312 3,300 -492 Level Memphis Center
Sun 08:21:59 PM 34.7950 -92.3669 81° East 243 280 2,800 -689 Descending Memphis Center
Sun 08:22:11 PM 34.7986 -92.3553 69° East 260 299 2,600 -800 Descending Memphis Center
Sun 08:22:59 PM 34.8067 -92.2953 81° East 188 216 2,000 -581 Descending Memphis Center
Sun 08:23:13 PM 34.8106 -92.2867 61° Northeast 236 272 2,000 -492 Level Memphis Center
Sun 08:24:00 PM 34.8025 -92.2472 104° East 135 155 1,500 -484 Descending Memphis Center
Sun 08:24:15 PM 34.8011 -92.2419 108° East 183 211 1,500 -590 Level Memphis Center
Sun 08:25:01 PM 34.7667 -92.2369 173° South 119 137 900 -689 Descending Memphis Center
Sun 08:25:16 PM 34.7633 -92.2389 206° Southwest 155 178 800 -400 Descending Memphis Center
Sun 08:27:00 PM 34.7294 -92.2248 104° East  Level Estimated

Login

Don't have an account? Register now (free) for customized features, flight alerts, and more!